createdAt,value
2019-05-03T00:00:42.565Z,88.94
2019-05-03T00:03:12.839Z,88.71
2019-05-03T00:05:43.109Z,89.26
2019-05-03T00:08:12.628Z,89.21
2019-05-03T00:10:42.538Z,89.35
2019-05-03T00:13:12.453Z,88.55
2019-05-03T00:15:48.309Z,88.81
2019-05-03T00:18:16.886Z,89.09
2019-05-03T00:20:45.406Z,89.16
2019-05-03T00:23:13.851Z,89.30
2019-05-03T00:25:42.293Z,89.26
2019-05-03T00:28:10.740Z,89.33
2019-05-03T00:30:39.173Z,89.54
2019-05-03T00:33:07.666Z,89.41
2019-05-03T00:35:37.718Z,89.53
2019-05-03T00:38:07.801Z,89.51
2019-05-03T00:40:36.249Z,89.35
2019-05-03T00:43:04.857Z,89.52
2019-05-03T00:45:33.256Z,89.70
2019-05-03T00:48:02.031Z,89.01
2019-05-03T00:50:32.032Z,89.28
2019-05-03T00:53:02.395Z,89.50
2019-05-03T00:55:48.165Z,89.30
2019-05-03T00:58:16.627Z,89.08
2019-05-03T01:00:45.055Z,89.00
2019-05-03T01:03:13.525Z,89.38
2019-05-03T01:05:42.401Z,89.13
2019-05-03T01:08:12.634Z,89.47
2019-05-03T01:10:42.148Z,89.04
2019-05-03T01:13:12.339Z,89.06
2019-05-03T01:15:57.714Z,89.21
2019-05-03T01:18:26.249Z,89.47
2019-05-03T01:20:54.685Z,89.85
2019-05-03T01:23:23.145Z,90.44
2019-05-03T01:25:51.759Z,90.88
2019-05-03T01:28:21.608Z,91.17
2019-05-03T01:30:51.928Z,91.02
2019-05-03T01:33:22.542Z,91.05
2019-05-03T01:35:51.911Z,91.20
2019-05-03T01:38:22.505Z,91.39
2019-05-03T01:40:52.183Z,91.56
2019-05-03T01:43:22.206Z,91.64
2019-05-03T01:45:51.869Z,91.75
2019-05-03T01:48:22.025Z,91.77
2019-05-03T01:50:54.708Z,92.02
2019-05-03T01:53:24.779Z,92.12
2019-05-03T01:55:53.241Z,92.12
2019-05-03T01:58:24.793Z,92.06
2019-05-03T02:01:02.674Z,92.09
2019-05-03T02:03:41.824Z,92.02
2019-05-03T02:06:11.924Z,91.96
2019-05-03T02:08:41.837Z,91.92
2019-05-03T02:11:11.597Z,91.84
2019-05-03T02:13:40.136Z,91.67
2019-05-03T02:16:08.640Z,91.72
2019-05-03T02:18:37.031Z,91.54
2019-05-03T02:21:05.496Z,91.62
2019-05-03T02:23:33.932Z,91.75
2019-05-03T02:26:03.062Z,91.69
2019-05-03T02:28:32.679Z,91.75
2019-05-03T02:31:03.473Z,91.73
2019-05-03T02:33:32.893Z,91.75
2019-05-03T02:36:03.592Z,91.75
2019-05-03T02:38:33.768Z,91.56
2019-05-03T02:41:02.932Z,91.61
2019-05-03T02:43:36.408Z,91.72
2019-05-03T02:46:06.908Z,91.93
2019-05-03T02:48:46.210Z,91.83
2019-05-03T02:51:16.317Z,91.59
2019-05-03T02:53:45.690Z,91.57
2019-05-03T02:56:22.228Z,91.75
2019-05-03T02:58:46.154Z,91.89
2019-05-03T03:01:16.197Z,91.58
2019-05-03T03:03:45.893Z,91.50
2019-05-03T03:06:17.709Z,91.03
2019-05-03T03:08:48.563Z,91.01
2019-05-03T03:11:18.731Z,90.95
2019-05-03T03:13:48.231Z,90.67
2019-05-03T03:16:20.487Z,90.60
2019-05-03T03:18:47.033Z,90.59
2019-05-03T03:21:19.749Z,90.28
2019-05-03T03:24:06.542Z,90.44
2019-05-03T03:26:42.756Z,90.48
2019-05-03T03:29:10.285Z,90.60
2019-05-03T03:32:18.588Z,90.68
2019-05-03T03:35:03.160Z,90.84
2019-05-03T03:37:29.359Z,90.63
2019-05-03T03:39:58.043Z,90.47
2019-05-03T03:42:28.232Z,90.57
2019-05-03T03:44:57.893Z,90.38
2019-05-03T03:47:28.874Z,90.31
2019-05-03T03:49:58.659Z,90.30
2019-05-03T03:52:29.942Z,90.47
2019-05-03T03:55:00.710Z,90.53
2019-05-03T03:57:32.481Z,90.50
2019-05-03T04:00:01.258Z,90.53
2019-05-03T04:02:29.819Z,90.44
2019-05-03T04:04:58.899Z,90.56
2019-05-03T04:07:27.417Z,90.65
2019-05-03T04:09:56.560Z,90.84
2019-05-03T04:12:26.589Z,90.94
2019-05-03T04:14:57.177Z,90.96
2019-05-03T04:17:45.622Z,91.04
2019-05-03T04:20:16.337Z,89.35
2019-05-03T04:22:45.478Z,88.50
2019-05-03T04:25:15.409Z,89.51
2019-05-03T04:27:45.770Z,90.26
2019-05-03T04:30:16.511Z,90.72
2019-05-03T04:32:45.887Z,90.56
2019-05-03T04:35:16.372Z,90.77
2019-05-03T04:37:45.300Z,90.65
2019-05-03T04:40:15.609Z,90.42
2019-05-03T04:42:46.396Z,90.47
2019-05-03T04:45:16.587Z,90.28
2019-05-03T04:47:46.438Z,89.21
2019-05-03T04:50:16.784Z,88.68
2019-05-03T04:52:46.282Z,88.62
2019-05-03T04:55:16.126Z,88.63
2019-05-03T04:57:49.223Z,88.14
2019-05-03T05:00:17.114Z,88.02
2019-05-03T05:02:46.164Z,87.75
2019-05-03T05:05:15.364Z,87.54
2019-05-03T05:07:46.022Z,87.24
2019-05-03T05:10:16.399Z,87.25
2019-05-03T05:12:45.908Z,86.80
2019-05-03T05:15:15.787Z,86.52
2019-05-03T05:18:01.369Z,85.99
2019-05-03T05:20:45.682Z,85.45
2019-05-03T05:23:14.790Z,84.96
2019-05-03T05:26:01.229Z,85.15
2019-05-03T05:28:31.289Z,85.11
2019-05-03T05:30:59.754Z,85.09
2019-05-03T05:33:28.272Z,84.87
2019-05-03T05:35:58.408Z,85.51
2019-05-03T05:38:29.638Z,86.82
2019-05-03T05:40:58.279Z,86.92
2019-05-03T05:43:30.005Z,85.11
2019-05-03T05:46:10.408Z,85.12
2019-05-03T05:48:36.072Z,85.33
2019-05-03T05:51:16.085Z,85.59
2019-05-03T05:53:38.467Z,85.15
2019-05-03T05:56:28.252Z,84.93
2019-05-03T05:59:19.839Z,84.93
2019-05-03T06:01:47.739Z,85.42
2019-05-03T06:04:16.263Z,84.80
2019-05-03T06:07:01.656Z,84.34
2019-05-03T06:09:39.438Z,83.13
2019-05-03T06:12:26.552Z,81.97
2019-05-03T06:14:50.435Z,82.16
2019-05-03T06:17:24.940Z,82.70
2019-05-03T06:19:52.472Z,82.87
2019-05-03T06:22:46.748Z,81.97
2019-05-03T06:25:26.444Z,82.44
2019-05-03T06:28:00.055Z,81.26
2019-05-03T06:30:41.933Z,80.83
2019-05-03T06:33:14.605Z,79.52
2019-05-03T06:35:44.587Z,78.72
2019-05-03T06:38:15.135Z,77.01
2019-05-03T06:40:46.291Z,77.82
2019-05-03T06:43:15.735Z,78.38
2019-05-03T06:45:50.640Z,73.00
2019-05-03T06:48:22.354Z,73.98
2019-05-03T06:50:50.794Z,72.75
2019-05-03T06:53:19.318Z,70.06
2019-05-03T06:55:48.583Z,72.10
2019-05-03T06:58:31.296Z,70.78
2019-05-03T07:00:57.486Z,71.32
2019-05-03T07:03:29.247Z,72.15
2019-05-03T07:06:15.694Z,69.86
2019-05-03T07:08:57.736Z,71.23
2019-05-03T07:11:26.351Z,72.03
2019-05-03T07:13:59.236Z,71.62
2019-05-03T07:16:25.488Z,71.70
2019-05-03T07:18:58.516Z,70.26
2019-05-03T07:21:27.557Z,66.93
2019-05-03T07:23:56.055Z,69.10
2019-05-03T07:26:30.717Z,65.75
2019-05-03T07:28:56.539Z,68.05
2019-05-03T07:31:25.629Z,68.19
2019-05-03T07:33:58.837Z,66.78
2019-05-03T07:36:27.588Z,65.67
2019-05-03T07:38:56.308Z,66.89
2019-05-03T07:41:27.125Z,65.22
2019-05-03T07:43:55.262Z,68.14
2019-05-03T07:46:25.399Z,68.53
2019-05-03T07:48:54.797Z,67.28
2019-05-03T07:51:24.907Z,69.20
2019-05-03T07:53:56.256Z,66.07
2019-05-03T07:56:26.428Z,68.55
2019-05-03T07:59:02.212Z,67.18
2019-05-03T08:01:28.694Z,65.59
2019-05-03T08:04:01.629Z,67.45
2019-05-03T08:06:29.509Z,64.78
2019-05-03T08:08:58.079Z,66.03
2019-05-03T08:11:32.620Z,62.64
2019-05-03T08:13:58.649Z,61.75
2019-05-03T08:16:27.161Z,61.91
2019-05-03T08:19:05.026Z,60.79
2019-05-03T08:21:38.022Z,60.63
2019-05-03T08:24:04.699Z,61.87
2019-05-03T08:26:35.060Z,61.10
2019-05-03T08:29:16.247Z,59.65
2019-05-03T08:31:49.367Z,58.15
2019-05-03T08:34:10.820Z,59.57
2019-05-03T08:36:58.832Z,59.71
2019-05-03T08:39:27.402Z,58.75
2019-05-03T08:41:57.632Z,61.37
2019-05-03T08:44:27.048Z,60.23
2019-05-03T08:46:56.494Z,61.21
2019-05-03T08:49:25.572Z,61.43
2019-05-03T08:51:54.972Z,59.61
2019-05-03T08:54:25.763Z,61.34
2019-05-03T08:56:55.720Z,59.63
2019-05-03T08:59:29.934Z,55.25
2019-05-03T09:01:55.070Z,58.00
2019-05-03T09:04:36.286Z,55.77
2019-05-03T09:06:55.041Z,55.74
2019-05-03T09:09:25.649Z,54.54
2019-05-03T09:11:55.675Z,55.23
2019-05-03T09:14:38.761Z,54.12
2019-05-03T09:16:57.177Z,54.00
2019-05-03T09:19:25.723Z,57.29
2019-05-03T09:21:54.829Z,54.28
2019-05-03T09:24:24.692Z,53.34
2019-05-03T09:26:55.655Z,55.36
2019-05-03T09:29:25.519Z,53.94
2019-05-03T09:31:56.013Z,51.50
2019-05-03T09:34:25.707Z,50.88
2019-05-03T09:36:55.312Z,49.73
2019-05-03T09:39:24.634Z,53.71
2019-05-03T09:41:55.305Z,52.76
2019-05-03T09:44:24.493Z,51.84
2019-05-03T09:46:55.030Z,52.90
2019-05-03T09:49:25.336Z,50.23
2019-05-03T09:51:54.819Z,48.34
2019-05-03T09:54:25.590Z,48.55
2019-05-03T09:56:58.553Z,46.92
2019-05-03T09:59:28.535Z,47.16
2019-05-03T10:02:04.485Z,48.52
2019-05-03T10:04:36.600Z,49.50
2019-05-03T10:07:05.506Z,48.18
2019-05-03T10:09:35.353Z,48.05
2019-05-03T10:12:05.763Z,48.50
2019-05-03T10:14:34.760Z,48.36
2019-05-03T10:17:21.310Z,47.57
2019-05-03T10:19:54.674Z,48.36
2019-05-03T10:22:27.536Z,49.49
2019-05-03T10:24:56.932Z,49.75
2019-05-03T10:27:26.840Z,50.45
2019-05-03T10:30:09.039Z,50.89
2019-05-03T10:32:27.426Z,50.73
2019-05-03T10:34:57.591Z,48.77
2019-05-03T10:37:35.769Z,47.83
2019-05-03T10:40:07.885Z,46.14
2019-05-03T10:42:35.378Z,44.48
2019-05-03T10:45:11.269Z,44.82
2019-05-03T10:47:36.079Z,45.24
2019-05-03T10:50:06.624Z,44.59
2019-05-03T10:52:37.034Z,43.68
2019-05-03T10:55:07.215Z,42.74
2019-05-03T10:57:37.503Z,45.18
2019-05-03T11:00:39.387Z,45.18
2019-05-03T11:02:49.323Z,43.92
2019-05-03T11:05:17.806Z,44.22
2019-05-03T11:07:46.377Z,43.95
2019-05-03T11:10:14.963Z,42.40
2019-05-03T11:12:43.447Z,45.47
2019-05-03T11:15:14.879Z,44.11
2019-05-03T11:17:43.161Z,43.05
2019-05-03T11:20:18.230Z,42.72
2019-05-03T11:22:45.258Z,44.28
2019-05-03T11:25:19.743Z,40.88
2019-05-03T11:27:49.904Z,37.88
2019-05-03T11:30:19.341Z,34.44
2019-05-03T11:32:55.749Z,32.76
2019-05-03T11:35:45.753Z,33.81
2019-05-03T11:38:15.927Z,34.00
2019-05-03T11:40:45.514Z,31.87
2019-05-03T11:43:15.264Z,32.11
2019-05-03T11:45:44.887Z,36.39
2019-05-03T11:48:14.789Z,38.44
2019-05-03T11:50:45.365Z,37.03
2019-05-03T11:53:14.512Z,36.57
2019-05-03T11:55:46.240Z,37.36
2019-05-03T11:58:20.997Z,39.92
2019-05-03T12:00:51.948Z,40.22
2019-05-03T12:03:22.093Z,41.11
2019-05-03T12:05:52.195Z,42.55
2019-05-03T12:08:20.661Z,41.76
2019-05-03T12:10:57.270Z,41.53
2019-05-03T12:13:20.929Z,40.00
2019-05-03T12:15:49.435Z,41.16
2019-05-03T12:18:18.442Z,42.06
2019-05-03T12:20:48.265Z,42.51
2019-05-03T12:23:18.022Z,41.18
2019-05-03T12:25:47.806Z,40.90
2019-05-03T12:28:16.740Z,41.29
2019-05-03T12:30:45.198Z,42.26
2019-05-03T12:33:15.374Z,42.36
2019-05-03T12:35:45.999Z,42.76
2019-05-03T12:38:16.304Z,41.69
2019-05-03T12:40:45.577Z,42.01
2019-05-03T12:43:14.954Z,37.65
2019-05-03T12:45:43.454Z,36.83
2019-05-03T12:48:11.883Z,37.11
2019-05-03T12:50:40.855Z,38.22
2019-05-03T12:53:09.711Z,37.71
2019-05-03T12:55:38.141Z,39.59
2019-05-03T12:58:06.736Z,40.01
2019-05-03T13:00:48.635Z,41.72
2019-05-03T13:03:31.025Z,42.28
2019-05-03T13:06:00.740Z,41.22
2019-05-03T13:08:35.299Z,42.66
2019-05-03T13:11:05.978Z,41.10
2019-05-03T13:13:35.786Z,41.41
2019-05-03T13:16:08.975Z,43.17
2019-05-03T13:18:37.583Z,43.91
2019-05-03T13:21:07.239Z,43.49
2019-05-03T13:23:35.938Z,44.44
2019-05-03T13:26:05.690Z,42.72
2019-05-03T13:28:34.527Z,41.81
2019-05-03T13:31:05.442Z,43.66
2019-05-03T13:33:34.807Z,42.58
2019-05-03T13:36:03.306Z,42.05
2019-05-03T13:38:34.934Z,44.12
2019-05-03T13:41:09.455Z,41.59
2019-05-03T13:43:37.973Z,42.35
2019-05-03T13:46:09.099Z,43.61
2019-05-03T13:48:45.516Z,43.15
2019-05-03T13:54:18.931Z,43.17
2019-05-03T13:56:49.193Z,42.30
2019-05-03T13:59:21.391Z,41.37
2019-05-03T14:01:47.740Z,42.71
2019-05-03T14:04:16.171Z,43.77
2019-05-03T14:06:44.854Z,45.88
2019-05-03T14:09:13.297Z,44.77
2019-05-03T14:11:41.736Z,44.23
2019-05-03T14:14:10.160Z,44.99
2019-05-03T14:16:45.198Z,47.18
2019-05-03T14:19:15.403Z,47.55
2019-05-03T14:21:45.483Z,49.67
2019-05-03T14:24:16.808Z,51.13
2019-05-03T14:26:55.649Z,55.68
2019-05-03T14:29:25.308Z,54.66
2019-05-03T14:31:54.574Z,58.59
2019-05-03T14:34:25.500Z,61.48
2019-05-03T14:37:31.839Z,61.13
2019-05-03T14:40:01.712Z,62.60
2019-05-03T14:42:30.291Z,63.36
2019-05-03T14:44:58.758Z,61.36
2019-05-03T14:47:27.187Z,62.74
2019-05-03T14:50:15.132Z,63.31
2019-05-03T14:52:45.512Z,64.96
2019-05-03T14:55:18.689Z,65.29
2019-05-03T14:57:57.433Z,63.07
2019-05-03T15:00:27.527Z,63.45
2019-05-03T15:03:00.535Z,62.00
2019-05-03T15:05:55.105Z,63.85
2019-05-03T15:08:25.677Z,64.01
2019-05-03T15:10:54.718Z,65.33
2019-05-03T15:13:25.074Z,63.28
2019-05-03T15:15:55.270Z,63.55
2019-05-03T15:18:25.632Z,65.50
2019-05-03T15:20:55.354Z,64.23
2019-05-03T15:23:25.485Z,67.15
2019-05-03T15:26:18.608Z,64.84
2019-05-03T15:28:47.038Z,63.44
2019-05-03T15:31:15.551Z,63.41
2019-05-03T15:33:44.909Z,65.05
2019-05-03T15:36:15.397Z,65.60
2019-05-03T15:38:44.614Z,66.10
2019-05-03T15:41:14.687Z,63.92
2019-05-03T15:43:45.466Z,65.61
2019-05-03T15:46:18.491Z,64.73
2019-05-03T15:48:57.407Z,64.42
2019-05-03T15:51:25.860Z,62.06
2019-05-03T15:53:55.148Z,63.75
2019-05-03T15:56:25.275Z,63.30
2019-05-03T15:58:55.232Z,64.50
2019-05-03T16:01:24.844Z,65.00
2019-05-03T16:03:56.134Z,67.11
2019-05-03T16:06:36.546Z,68.25
2019-05-03T16:09:06.788Z,68.32
2019-05-03T16:11:36.884Z,67.85
2019-05-03T16:14:08.613Z,68.61
2019-05-03T16:16:37.221Z,70.47
2019-05-03T16:19:05.787Z,70.84
2019-05-03T16:21:36.617Z,70.41
2019-05-03T16:24:04.994Z,71.39
2019-05-03T16:26:35.503Z,71.39
2019-05-03T16:29:11.312Z,71.29
2019-05-03T16:31:42.730Z,70.43
2019-05-03T16:34:11.157Z,71.26
2019-05-03T16:36:39.661Z,70.88
2019-05-03T16:39:08.244Z,71.60
2019-05-03T16:41:36.759Z,69.99
2019-05-03T16:44:05.301Z,70.76
2019-05-03T16:46:34.361Z,71.27
2019-05-03T16:49:06.524Z,71.97
2019-05-03T16:51:35.240Z,71.55
2019-05-03T16:54:03.803Z,70.99
2019-05-03T16:56:32.397Z,72.13
2019-05-03T16:59:00.810Z,72.79
2019-05-03T17:01:29.254Z,72.91
2019-05-03T17:03:59.318Z,70.68
2019-05-03T17:06:35.479Z,70.90
2019-05-03T17:09:15.859Z,71.86
2019-05-03T17:11:45.944Z,71.04
2019-05-03T17:14:21.400Z,70.91
2019-05-03T17:16:49.882Z,71.60
2019-05-03T17:19:18.332Z,70.14
2019-05-03T17:21:47.093Z,71.89
2019-05-03T17:24:16.443Z,71.05
2019-05-03T17:26:45.050Z,70.50
2019-05-03T17:29:13.591Z,69.64
2019-05-03T17:31:42.126Z,69.74
2019-05-03T17:34:10.571Z,70.35
2019-05-03T17:36:39.104Z,70.53
2019-05-03T17:39:10.891Z,70.43
2019-05-03T17:42:31.909Z,69.58
2019-05-03T17:45:00.326Z,70.00
2019-05-03T17:47:28.798Z,69.91
2019-05-03T17:49:57.254Z,69.87
2019-05-03T17:52:34.338Z,68.67
2019-05-03T17:55:04.992Z,69.27
2019-05-03T17:57:37.886Z,68.68
2019-05-03T18:00:09.303Z,69.78
2019-05-03T18:02:39.414Z,68.57
2019-05-03T18:05:25.862Z,68.37
2019-05-03T18:08:21.495Z,67.65
2019-05-03T18:10:57.545Z,68.52
2019-05-03T18:13:25.983Z,69.03
2019-05-03T18:15:54.500Z,68.25
2019-05-03T18:21:35.067Z,67.15
2019-05-03T18:24:04.941Z,67.14
2019-05-03T18:26:35.386Z,67.46
2019-05-03T18:29:05.638Z,68.77
2019-05-03T18:31:36.519Z,67.59
2019-05-03T18:34:08.858Z,67.28
2019-05-03T18:36:35.285Z,68.32
2019-05-03T18:39:05.558Z,67.28
2019-05-03T18:41:34.623Z,67.92
2019-05-03T18:44:14.785Z,67.46
2019-05-03T18:46:46.738Z,68.28
2019-05-03T18:49:15.200Z,68.02
2019-05-03T18:51:44.732Z,68.02
2019-05-03T18:54:13.291Z,68.98
2019-05-03T18:56:41.707Z,68.78
2019-05-03T18:59:10.156Z,68.16
2019-05-03T19:01:45.241Z,68.79
2019-05-03T19:04:34.672Z,68.92
2019-05-03T19:07:04.356Z,68.24
2019-05-03T19:09:46.130Z,68.45
2019-05-03T19:12:32.404Z,68.95
2019-05-03T19:15:01.085Z,69.41
2019-05-03T19:17:37.066Z,69.61
2019-05-03T19:20:09.936Z,70.12
2019-05-03T19:22:40.073Z,69.91
2019-05-03T19:25:08.602Z,70.21
2019-05-03T19:27:37.123Z,71.02
2019-05-03T19:30:07.324Z,69.91
2019-05-03T19:32:35.959Z,69.70
2019-05-03T19:35:08.539Z,70.04
2019-05-03T19:37:38.454Z,69.72
2019-05-03T19:40:07.327Z,69.73
2019-05-03T19:42:35.881Z,69.77
2019-05-03T19:45:05.134Z,70.45
2019-05-03T19:47:35.227Z,72.05
2019-05-03T19:50:05.276Z,73.44
2019-05-03T19:52:36.974Z,73.65
2019-05-03T19:55:10.621Z,73.94
2019-05-03T19:57:41.704Z,74.49
2019-05-03T20:00:10.410Z,74.21
2019-05-03T20:02:56.465Z,74.77
2019-05-03T20:05:47.250Z,76.06
2019-05-03T20:08:17.338Z,75.15
2019-05-03T20:10:46.419Z,74.28
2019-05-03T20:13:15.231Z,74.32
2019-05-03T20:15:45.073Z,73.95
2019-05-03T20:18:15.026Z,75.46
2019-05-03T20:20:44.708Z,75.45
2019-05-03T20:23:25.095Z,74.18
2019-05-03T20:25:54.625Z,75.16
2019-05-03T20:28:24.814Z,74.76
2019-05-03T20:30:54.485Z,74.69
2019-05-03T20:33:29.218Z,74.17
2019-05-03T20:35:57.829Z,74.86
2019-05-03T20:38:26.248Z,74.90
2019-05-03T20:40:58.432Z,74.70
2019-05-03T20:43:44.515Z,74.66
2019-05-03T20:46:20.746Z,74.64
2019-05-03T20:48:53.602Z,74.39
2019-05-03T20:51:25.190Z,74.45
2019-05-03T20:53:55.335Z,74.56
2019-05-03T20:56:28.327Z,74.35
2019-05-03T20:58:59.716Z,74.57
2019-05-03T21:01:29.741Z,75.20
2019-05-03T21:04:00.603Z,74.21
2019-05-03T21:06:35.988Z,74.62
2019-05-03T21:09:06.401Z,75.25
2019-05-03T21:11:35.542Z,74.59
2019-05-03T21:14:04.807Z,74.45
2019-05-03T21:16:45.174Z,74.83
2019-05-03T21:19:15.876Z,75.80
2019-05-03T21:21:46.009Z,75.60
2019-05-03T21:24:16.085Z,76.12
2019-05-03T21:26:56.474Z,76.12
2019-05-03T21:29:24.964Z,75.61
2019-05-03T21:31:55.143Z,75.35
2019-05-03T21:34:25.178Z,75.68
2019-05-03T21:36:54.477Z,75.78
2019-05-03T21:39:24.703Z,75.28
2019-05-03T21:41:53.156Z,73.66
2019-05-03T21:44:31.299Z,74.40
2019-05-03T21:47:04.814Z,74.57
2019-05-03T21:49:34.873Z,75.21
2019-05-03T21:52:04.583Z,75.14
2019-05-03T21:54:34.647Z,76.75
2019-05-03T21:57:03.162Z,76.69
2019-05-03T21:59:31.604Z,78.41
2019-05-03T22:02:00.019Z,78.93
2019-05-03T22:04:28.471Z,79.80
2019-05-03T22:06:57.014Z,79.37
2019-05-03T22:09:25.488Z,80.82
2019-05-03T22:11:54.856Z,81.15
2019-05-03T22:14:25.078Z,80.49
2019-05-03T22:16:55.430Z,80.45
2019-05-03T22:19:25.048Z,81.57
2019-05-03T22:22:00.715Z,80.87
2019-05-03T22:24:33.828Z,82.00
2019-05-03T22:27:06.551Z,82.75
2019-05-03T22:29:35.647Z,82.42
2019-05-03T22:32:05.277Z,81.98
2019-05-03T22:34:34.867Z,82.29
2019-05-03T22:37:05.648Z,82.73
2019-05-03T22:39:34.138Z,82.63
2019-05-03T22:42:04.363Z,83.66
2019-05-03T22:44:32.835Z,83.43
2019-05-03T22:47:01.328Z,83.89
2019-05-03T22:49:29.791Z,84.30
2019-05-03T22:51:58.898Z,84.54
2019-05-03T22:54:27.360Z,83.23
2019-05-03T22:56:55.830Z,84.03
2019-05-03T22:59:25.245Z,84.37
2019-05-03T23:02:00.169Z,83.90
2019-05-03T23:04:28.619Z,85.54
2019-05-03T23:06:57.085Z,86.49
2019-05-03T23:09:25.575Z,86.98
2019-05-03T23:11:55.218Z,86.61
2019-05-03T23:14:25.405Z,86.17
2019-05-03T23:16:54.330Z,86.92
2019-05-03T23:19:22.817Z,87.77
2019-05-03T23:22:01.843Z,87.55
2019-05-03T23:24:35.258Z,86.81
2019-05-03T23:27:05.046Z,86.95
2019-05-03T23:29:34.927Z,86.74
2019-05-03T23:32:04.683Z,87.30
2019-05-03T23:34:35.344Z,87.03
2019-05-03T23:37:05.508Z,87.54
2019-05-03T23:39:34.184Z,86.83
2019-05-03T23:42:04.938Z,88.09
2019-05-03T23:44:35.125Z,87.83
2019-05-03T23:47:11.621Z,88.15
2019-05-03T23:49:40.166Z,87.05
2019-05-03T23:52:14.943Z,86.82
2019-05-03T23:54:43.874Z,86.15
2019-05-03T23:57:14.365Z,86.56
2019-05-03T23:59:44.854Z,86.13
